Time;durP1;ratioP1;P1;durP2;ratioP2;P2;SDS_P1;SDS_P2;PMS_P1;PMS_P2;Temp;Humidity;BMP_temperature;BMP_pressure;BME280_temperature;BME280_humidity;BME280_pressure;Samples;Min_cycle;Max_cycle;Signal;HPM_P1;HPM_P2
2022/05/31 00:01:25;;;;;;;3.40;1.30;;;12.30;47.50;;;;;;5014240;28;20072;-79
2022/05/31 00:03:51;;;;;;;2.40;1.13;;;12.30;47.70;;;;;;5014142;28;20022;-79
2022/05/31 00:06:18;;;;;;;5.10;1.13;;;12.40;47.50;;;;;;5013799;28;20026;-79
2022/05/31 00:08:44;;;;;;;1.70;1.05;;;12.30;47.40;;;;;;5014095;28;20033;-78
2022/05/31 00:11:11;;;;;;;5.28;1.17;;;12.30;47.40;;;;;;5013916;28;20387;-79
2022/05/31 00:13:37;;;;;;;3.75;1.40;;;12.30;47.40;;;;;;5013952;28;20034;-79
2022/05/31 00:16:03;;;;;;;3.47;1.25;;;12.30;47.00;;;;;;5013854;28;20030;-79
2022/05/31 00:18:29;;;;;;;1.98;1.08;;;12.20;47.00;;;;;;5013355;28;20026;-79
2022/05/31 00:20:54;;;;;;;4.55;1.10;;;12.30;47.10;;;;;;5013892;28;20026;-80
2022/05/31 00:23:20;;;;;;;4.28;1.15;;;12.30;47.20;;;;;;5013983;28;20053;-79
2022/05/31 00:25:47;;;;;;;4.40;1.13;;;12.30;47.70;;;;;;5015145;28;20109;-80
2022/05/31 00:28:13;;;;;;;3.17;1.40;;;12.30;46.90;;;;;;5014135;28;20033;-79
2022/05/31 00:30:39;;;;;;;3.05;1.30;;;12.30;47.00;;;;;;4997612;28;20026;-80
2022/05/31 00:33:07;;;;;;;1.40;0.90;;;12.30;46.70;;;;;;5013661;28;20052;-78
2022/05/31 00:35:41;;;;;;;4.05;1.17;;;12.40;46.40;;;;;;4997505;28;20025;-80
2022/05/31 00:38:08;;;;;;;2.35;0.95;;;12.40;46.40;;;;;;5013791;28;20025;-81
2022/05/31 00:40:36;;;;;;;1.90;0.93;;;12.40;46.30;;;;;;5013516;28;20037;-80
2022/05/31 00:43:06;;;;;;;1.67;0.90;;;12.50;46.30;;;;;;5013577;28;20124;-78
2022/05/31 00:45:40;;;;;;;3.38;1.05;;;12.50;46.00;;;;;;5013216;28;20026;-79
2022/05/31 00:48:11;;;;;;;1.58;1.13;;;12.50;46.00;;;;;;5013306;28;20026;-79
2022/05/31 00:50:46;;;;;;;1.52;0.90;;;12.60;46.00;;;;;;5030212;28;20026;-79
2022/05/31 00:53:15;;;;;;;;;;;12.50;45.90;;;;;;5030222;28;20022;-78
2022/05/31 00:55:52;;;;;;;2.13;1.08;;;12.50;45.80;;;;;;4996796;28;20380;-79
2022/05/31 00:58:29;;;;;;;1.60;1.05;;;12.50;45.80;;;;;;5013372;28;20045;-79
2022/05/31 01:00:56;;;;;;;5.32;1.38;;;12.50;45.90;;;;;;5013489;28;20037;-78
2022/05/31 01:03:23;;;;;;;3.17;1.15;;;12.50;45.70;;;;;;5014982;28;20061;-79
2022/05/31 01:05:49;;;;;;;1.90;1.02;;;12.50;45.80;;;;;;5013225;28;20022;-77
2022/05/31 01:08:15;;;;;;;5.72;1.13;;;12.50;45.90;;;;;;5015503;28;20122;-79
2022/05/31 01:10:43;;;;;;;4.72;1.00;;;12.50;46.00;;;;;;5012705;28;20101;-78
2022/05/31 01:13:14;;;;;;;6.43;1.63;;;12.50;47.10;;;;;;5012319;28;20510;-78
2022/05/31 01:15:42;;;;;;;4.22;1.55;;;12.40;46.40;;;;;;5030137;28;20029;-78
2022/05/31 01:18:09;;;;;;;3.33;1.15;;;12.30;46.70;;;;;;5030072;28;20505;-78
2022/05/31 01:20:35;;;;;;;2.55;1.30;;;12.30;47.60;;;;;;5012674;28;20429;-77
2022/05/31 01:23:10;;;;;;;4.53;1.00;;;12.30;47.10;;;;;;4996207;28;20116;-78
2022/05/31 01:25:58;;;;;;;1.33;1.00;;;12.30;46.70;;;;;;5013002;28;20026;-78
2022/05/31 01:28:37;;;;;;;2.33;0.95;;;12.30;46.70;;;;;;5012982;28;20033;-79
2022/05/31 01:31:25;;;;;;;3.20;1.30;;;12.40;46.80;;;;;;5012660;28;20026;-78
2022/05/31 01:34:00;;;;;;;2.85;1.52;;;12.50;47.00;;;;;;5012643;28;20061;-78
2022/05/31 01:36:33;;;;;;;4.45;0.90;;;12.50;47.00;;;;;;5012625;28;20052;-78
2022/05/31 01:39:32;;;;;;;3.25;1.10;;;12.60;46.90;;;;;;5028842;28;20494;-78
2022/05/31 01:42:03;;;;;;;1.10;0.93;;;12.60;47.00;;;;;;4975350;28;20133;-83
2022/05/31 01:44:35;;;;;;;2.22;1.10;;;12.60;47.30;;;;;;5013264;28;20434;-82
2022/05/31 01:47:03;;;;;;;0.85;0.80;;;12.60;47.40;;;;;;5012862;28;20061;-82
2022/05/31 01:49:38;;;;;;;3.60;1.20;;;12.70;48.40;;;;;;4996029;28;20038;-82
2022/05/31 01:52:05;;;;;;;4.15;1.10;;;12.60;47.30;;;;;;4996235;28;20091;-82
2022/05/31 01:54:33;;;;;;;2.05;0.88;;;12.70;47.10;;;;;;5011721;28;20092;-81
2022/05/31 01:57:02;;;;;;;2.15;1.13;;;12.70;47.40;;;;;;4996289;28;20438;-81
2022/05/31 01:59:34;;;;;;;2.55;1.17;;;12.70;47.10;;;;;;5011850;28;20068;-82
2022/05/31 02:02:03;;;;;;;4.40;1.33;;;12.70;46.80;;;;;;5012223;28;20022;-82
2022/05/31 02:04:30;;;;;;;2.13;0.90;;;12.70;47.00;;;;;;5012547;28;20029;-82
2022/05/31 02:07:25;;;;;;;2.42;1.27;;;12.60;46.90;;;;;;5012148;28;20037;-83
2022/05/31 02:09:53;;;;;;;1.90;1.20;;;12.60;46.90;;;;;;5012404;28;20060;-82
2022/05/31 02:12:22;;;;;;;2.17;1.23;;;12.60;47.20;;;;;;5012090;28;20049;-82
2022/05/31 02:14:47;;;;;;;1.83;1.10;;;12.60;47.50;;;;;;5012175;28;20049;-82
2022/05/31 02:17:13;;;;;;;2.03;1.10;;;12.50;47.70;;;;;;5012481;28;20467;-82
2022/05/31 02:19:39;;;;;;;2.78;1.10;;;12.50;47.80;;;;;;5011768;28;20478;-83
2022/05/31 02:22:07;;;;;;;3.20;1.23;;;12.50;47.90;;;;;;5012183;28;20026;-83
2022/05/31 02:24:34;;;;;;;3.15;1.35;;;12.40;48.70;;;;;;5014128;28;20080;-83
2022/05/31 02:27:01;;;;;;;4.20;1.10;;;12.40;48.80;;;;;;5000064;28;20474;-83
2022/05/31 02:29:29;;;;;;;2.85;1.33;;;12.40;48.90;;;;;;5016177;28;20113;-83
2022/05/31 02:31:58;;;;;;;2.70;1.20;;;12.30;49.50;;;;;;5016010;28;20536;-82
2022/05/31 02:34:27;;;;;;;4.93;1.20;;;12.20;49.60;;;;;;5015990;28;20042;-83
2022/05/31 02:36:54;;;;;;;3.90;1.42;;;12.10;49.60;;;;;;5015788;28;20038;-82
2022/05/31 02:39:20;;;;;;;2.45;1.10;;;12.00;49.60;;;;;;5018567;28;20022;-82
2022/05/31 02:41:46;;;;;;;3.83;1.73;;;12.00;50.20;;;;;;5016233;28;20463;-77
2022/05/31 02:44:14;;;;;;;3.08;1.20;;;12.00;50.90;;;;;;5015836;28;20549;-78
2022/05/31 02:46:40;;;;;;;3.28;1.55;;;11.90;51.20;;;;;;5009498;28;20030;-77
2022/05/31 02:49:06;;;;;;;1.63;1.00;;;11.80;51.30;;;;;;5024495;28;20072;-78
2022/05/31 02:51:41;;;;;;;2.83;1.27;;;11.70;51.30;;;;;;5016155;28;20026;-77
2022/05/31 02:54:11;;;;;;;2.60;1.63;;;11.60;51.90;;;;;;5013038;28;20136;-77
2022/05/31 02:56:38;;;;;;;3.38;1.55;;;11.60;51.90;;;;;;5017092;28;20041;-78
2022/05/31 02:59:05;;;;;;;2.63;1.45;;;11.50;52.50;;;;;;5015653;28;20033;-77
2022/05/31 03:01:38;;;;;;;1.35;1.25;;;11.40;52.80;;;;;;5015627;28;20084;-77
2022/05/31 03:04:05;;;;;;;1.92;1.45;;;11.40;52.70;;;;;;5015435;28;20030;-77
2022/05/31 03:06:31;;;;;;;1.40;1.30;;;11.40;52.70;;;;;;5015451;28;20026;-78
2022/05/31 03:09:00;;;;;;;2.10;1.38;;;11.30;53.20;;;;;;4998787;28;20040;-78
2022/05/31 03:11:45;;;;;;;3.80;1.52;;;11.20;53.40;;;;;;5015071;28;20057;-77
2022/05/31 03:14:33;;;;;;;5.90;1.67;;;11.20;53.70;;;;;;5015041;28;20513;-78
2022/05/31 03:17:15;;;;;;;7.30;1.70;;;11.20;54.30;;;;;;5014791;28;20026;-79
2022/05/31 03:19:54;;;;;;;4.65;1.50;;;11.10;54.90;;;;;;5015096;28;20096;-79
2022/05/31 03:22:26;;;;;;;3.63;1.48;;;11.10;55.40;;;;;;5015280;28;20026;-78
2022/05/31 03:24:59;;;;;;;2.08;1.60;;;11.00;55.60;;;;;;5015171;28;20486;-77
2022/05/31 03:27:26;;;;;;;2.67;1.42;;;11.00;56.20;;;;;;5015049;28;20030;-78
2022/05/31 03:29:53;;;;;;;2.30;1.35;;;11.00;56.20;;;;;;5031324;28;20556;-77
2022/05/31 03:32:20;;;;;;;4.07;1.23;;;11.00;56.50;;;;;;5014169;28;20038;-77
2022/05/31 03:34:45;;;;;;;3.75;1.98;;;10.90;56.80;;;;;;5014689;28;20029;-76
2022/05/31 03:37:11;;;;;;;3.10;1.50;;;10.90;56.70;;;;;;5014643;28;20129;-78
2022/05/31 03:39:37;;;;;;;3.08;2.00;;;11.00;56.60;;;;;;5014892;28;20029;-76
2022/05/31 03:42:05;;;;;;;5.13;2.65;;;11.10;56.60;;;;;;5014485;28;20390;-78
2022/05/31 03:44:31;;;;;;;3.53;1.73;;;11.10;56.40;;;;;;5014779;28;20076;-77
2022/05/31 03:46:57;;;;;;;5.22;2.65;;;11.10;56.70;;;;;;5030846;28;20455;-79
2022/05/31 03:49:23;;;;;;;5.00;1.98;;;11.10;57.00;;;;;;4998483;28;20041;-77
2022/05/31 03:51:49;;;;;;;5.13;2.20;;;11.10;56.90;;;;;;4998178;28;20379;-76
2022/05/31 03:54:15;;;;;;;3.10;1.80;;;11.00;57.10;;;;;;5014514;28;20042;-77
2022/05/31 03:56:41;;;;;;;6.35;2.15;;;11.10;57.20;;;;;;5015381;28;20022;-79
2022/05/31 03:59:06;;;;;;;6.18;2.40;;;11.20;57.20;;;;;;5014036;28;20038;-77
2022/05/31 04:01:32;;;;;;;5.93;2.17;;;11.20;57.00;;;;;;5013910;28;20077;-77
2022/05/31 04:03:58;;;;;;;6.43;3.47;;;11.30;57.30;;;;;;5014409;28;20386;-76
2022/05/31 04:06:24;;;;;;;9.23;2.55;;;11.20;57.90;;;;;;5014143;28;20097;-77
2022/05/31 04:08:49;;;;;;;7.32;2.00;;;11.20;57.90;;;;;;4997733;28;20034;-78
2022/05/31 04:11:17;;;;;;;3.50;1.70;;;11.20;57.70;;;;;;4997646;28;20032;-77
2022/05/31 04:13:42;;;;;;;3.33;1.95;;;10.90;57.80;;;;;;5013933;28;20041;-77
2022/05/31 04:16:15;;;;;;;6.50;2.33;;;11.00;57.50;;;;;;5013551;28;20029;-77
2022/05/31 04:18:42;;;;;;;5.00;2.50;;;10.80;58.10;;;;;;4997927;28;20026;-77
2022/05/31 04:21:13;;;;;;;4.00;2.60;;;10.70;58.40;;;;;;4997490;28;20053;-77
2022/05/31 04:26:24;;;;;;;6.00;2.47;;;10.70;58.80;;;;;;5015304;28;20135;-77
2022/05/31 04:28:51;;;;;;;4.78;2.58;;;10.80;58.50;;;;;;5030535;28;20026;-76
2022/05/31 04:31:16;;;;;;;6.60;2.97;;;10.80;58.20;;;;;;5013638;28;20472;-77
2022/05/31 04:33:42;;;;;;;9.98;3.75;;;11.00;58.10;;;;;;5013648;28;20037;-77
2022/05/31 04:36:11;;;;;;;9.43;3.63;;;11.00;57.90;;;;;;5014609;28;20049;-77
2022/05/31 04:38:38;;;;;;;6.47;2.78;;;11.10;57.30;;;;;;5030060;28;20034;-78
2022/05/31 04:41:04;;;;;;;7.80;3.17;;;11.10;56.90;;;;;;5012890;28;20022;-78
2022/05/31 04:43:31;;;;;;;6.65;2.70;;;11.10;56.80;;;;;;5012972;28;20026;-77
2022/05/31 04:45:56;;;;;;;5.22;2.40;;;11.10;57.30;;;;;;5013395;28;20025;-77
2022/05/31 04:48:24;;;;;;;4.28;2.42;;;11.10;57.30;;;;;;5012546;28;20060;-76
2022/05/31 04:50:50;;;;;;;6.97;2.75;;;11.20;57.00;;;;;;5013300;28;20022;-77
2022/05/31 04:53:16;;;;;;;5.22;1.83;;;11.20;57.10;;;;;;5012841;28;20038;-78
2022/05/31 04:55:43;;;;;;;5.18;1.92;;;11.40;57.00;;;;;;5013075;28;20025;-77
2022/05/31 04:58:08;;;;;;;4.53;1.83;;;11.50;56.90;;;;;;4996992;28;20129;-77
2022/05/31 05:00:34;;;;;;;3.78;1.70;;;11.50;56.90;;;;;;5013201;28;20558;-77
2022/05/31 05:03:01;;;;;;;5.32;1.98;;;11.60;56.90;;;;;;5012842;28;20156;-78
2022/05/31 05:05:31;;;;;;;4.57;2.05;;;11.70;56.60;;;;;;5014458;28;20105;-77
2022/05/31 05:07:57;;;;;;;2.17;1.50;;;11.80;56.20;;;;;;5012517;28;20073;-77
2022/05/31 05:10:24;;;;;;;3.35;1.58;;;12.00;56.00;;;;;;4996820;28;20034;-78
2022/05/31 05:12:49;;;;;;;4.85;1.73;;;12.20;55.50;;;;;;5013112;28;20541;-79
2022/05/31 05:15:15;;;;;;;2.80;1.85;;;12.30;55.20;;;;;;5012566;28;20034;-79
2022/05/31 05:17:41;;;;;;;2.25;1.60;;;12.40;55.50;;;;;;4996102;28;20026;-80
2022/05/31 05:20:08;;;;;;;2.92;2.00;;;12.50;55.20;;;;;;4996655;28;20128;-79
2022/05/31 05:22:34;;;;;;;7.40;2.78;;;12.50;55.60;;;;;;5012449;28;20394;-79
2022/05/31 05:25:00;;;;;;;8.07;2.35;;;12.60;56.20;;;;;;5012010;28;20022;-79
2022/05/31 05:27:26;;;;;;;6.10;1.90;;;12.50;56.00;;;;;;4995858;28;20164;-80
2022/05/31 05:32:36;;;;;;;3.78;1.75;;;12.70;55.70;;;;;;5013185;28;20053;-79
2022/05/31 05:35:06;;;;;;;2.88;1.80;;;12.70;55.80;;;;;;4995785;28;20053;-79
2022/05/31 05:37:31;;;;;;;4.03;1.60;;;12.70;55.50;;;;;;5011421;28;20502;-80
2022/05/31 05:39:58;;;;;;;2.40;1.60;;;12.80;55.50;;;;;;5011963;28;20033;-80
2022/05/31 05:42:24;;;;;;;8.57;2.20;;;12.80;55.50;;;;;;5013270;28;20100;-79
2022/05/31 05:44:50;;;;;;;7.97;2.25;;;12.80;55.40;;;;;;4994976;28;20245;-79
2022/05/31 05:47:17;;;;;;;9.13;2.65;;;12.80;55.10;;;;;;5011317;28;20061;-79
2022/05/31 05:49:43;;;;;;;9.45;2.70;;;12.90;55.00;;;;;;5011618;28;20558;-79
2022/05/31 05:52:15;;;;;;;3.97;2.53;;;12.80;54.80;;;;;;5012252;28;20080;-79
2022/05/31 05:54:41;;;;;;;5.05;2.17;;;12.80;54.80;;;;;;5013539;28;20049;-78
2022/05/31 05:57:07;;;;;;;12.77;2.40;;;12.90;54.70;;;;;;5012638;28;20022;-80
2022/05/31 05:59:34;;;;;;;12.23;2.92;;;13.00;54.70;;;;;;5011506;28;20128;-84
2022/05/31 06:02:15;;;;;;;6.00;2.35;;;13.00;55.00;;;;;;5011521;28;20018;-78
2022/05/31 06:04:48;;;;;;;7.60;2.80;;;13.10;55.80;;;;;;4995567;28;20478;-78
2022/05/31 06:07:24;;;;;;;8.88;2.40;;;13.20;55.10;;;;;;5011399;28;20076;-78
2022/05/31 06:09:55;;;;;;;8.07;1.95;;;13.30;55.90;;;;;;5012682;28;20026;-84
2022/05/31 06:12:24;;;;;;;10.70;2.45;;;13.70;65.80;;;;;;5011594;28;20050;-81
2022/05/31 06:15:06;;;;;;;6.32;2.10;;;14.00;65.90;;;;;;5011404;28;20037;-74
2022/05/31 06:17:38;;;;;;;9.55;2.85;;;14.40;62.70;;;;;;5011438;28;20144;-73
2022/05/31 06:20:07;;;;;;;11.40;2.40;;;14.70;58.60;;;;;;5011166;28;20030;-73
2022/05/31 06:22:36;;;;;;;10.80;2.58;;;15.20;56.80;;;;;;5011314;28;20033;-74
2022/05/31 06:25:03;;;;;;;5.80;2.00;;;15.60;55.00;;;;;;5011979;28;20121;-75
2022/05/31 06:27:29;;;;;;;7.13;2.38;;;16.00;52.90;;;;;;5011912;28;20053;-74
2022/05/31 06:29:54;;;;;;;9.48;2.55;;;16.20;51.00;;;;;;5011643;28;20062;-74
2022/05/31 06:32:20;;;;;;;6.40;1.85;;;16.40;50.80;;;;;;5011489;28;20030;-74
2022/05/31 06:34:46;;;;;;;8.00;1.73;;;16.60;50.00;;;;;;5011448;28;20025;-73
2022/05/31 06:37:14;;;;;;;15.10;2.92;;;16.70;49.90;;;;;;5011125;28;20103;-73
2022/05/31 06:39:41;;;;;;;8.93;2.40;;;16.50;48.90;;;;;;5011792;28;20403;-73
2022/05/31 06:42:09;;;;;;;4.20;2.10;;;16.60;50.00;;;;;;5011674;28;20018;-73
2022/05/31 06:44:37;;;;;;;6.07;3.03;;;16.50;50.30;;;;;;5011483;28;20172;-73
2022/05/31 06:47:04;;;;;;;5.53;2.00;;;16.60;48.90;;;;;;5011262;28;20522;-73
2022/05/31 06:49:31;;;;;;;5.70;2.03;;;16.60;47.80;;;;;;5011442;28;20041;-74
2022/05/31 06:57:35;;;;;;;5.82;1.75;;;16.90;48.70;;;;;;5012724;28;20053;-74
2022/05/31 07:00:02;;;;;;;6.07;2.75;;;17.10;49.10;;;;;;5010968;28;20022;-73
2022/05/31 07:02:27;;;;;;;7.95;2.58;;;17.10;48.30;;;;;;5011081;28;20041;-74
2022/05/31 07:04:54;;;;;;;7.70;2.75;;;17.10;48.60;;;;;;5011558;28;20034;-73
2022/05/31 07:07:20;;;;;;;6.32;2.50;;;17.20;48.60;;;;;;5011537;28;20025;-81
2022/05/31 07:09:47;;;;;;;7.40;2.40;;;17.30;47.40;;;;;;4994840;28;20038;-82
2022/05/31 07:12:20;;;;;;;9.10;2.65;;;17.10;47.50;;;;;;4998128;28;20471;-81
2022/05/31 07:14:46;;;;;;;6.15;2.60;;;16.90;48.90;;;;;;5013757;28;20502;-81
2022/05/31 07:17:14;;;;;;;5.55;2.17;;;16.50;49.40;;;;;;5015646;28;20164;-80
2022/05/31 07:19:45;;;;;;;6.88;2.65;;;16.40;50.50;;;;;;5014448;28;20084;-82
2022/05/31 07:22:16;;;;;;;12.02;3.10;;;16.40;49.90;;;;;;5014173;28;20103;-81
2022/05/31 07:24:41;;;;;;;6.90;2.50;;;16.50;50.70;;;;;;4997840;28;20415;-81
2022/05/31 07:27:10;;;;;;;9.57;2.22;;;16.50;49.40;;;;;;5014494;28;20026;-81
2022/05/31 07:29:36;;;;;;;6.47;2.40;;;16.50;49.80;;;;;;5014083;28;20502;-82
2022/05/31 07:32:04;;;;;;;8.75;2.05;;;16.50;49.20;;;;;;5014357;28;20030;-81
2022/05/31 07:34:30;;;;;;;5.55;2.10;;;16.40;49.60;;;;;;4998327;28;20064;-81
2022/05/31 07:36:56;;;;;;;4.07;1.80;;;16.40;48.90;;;;;;5014824;28;20054;-80
2022/05/31 07:39:22;;;;;;;7.40;1.98;;;16.40;49.20;;;;;;5018885;28;20469;-80
2022/05/31 07:41:49;;;;;;;4.38;2.03;;;16.40;49.10;;;;;;5014622;28;20463;-81
2022/05/31 07:44:18;;;;;;;3.72;1.38;;;16.50;49.10;;;;;;4997864;28;20075;-81
2022/05/31 07:46:45;;;;;;;9.82;1.80;;;16.60;49.50;;;;;;4997115;28;20042;-81
2022/05/31 07:49:10;;;;;;;4.38;1.83;;;16.70;49.20;;;;;;5013641;28;20021;-81
2022/05/31 07:51:36;;;;;;;3.60;2.00;;;16.80;49.00;;;;;;5012164;28;20958;-81
2022/05/31 07:54:03;;;;;;;4.40;1.70;;;17.10;49.10;;;;;;5012320;28;20112;-81
2022/05/31 07:56:29;;;;;;;4.32;1.67;;;17.30;47.70;;;;;;5013666;28;20059;-81
2022/05/31 07:59:01;;;;;;;5.22;1.50;;;17.40;47.70;;;;;;5014057;28;20109;-81
2022/05/31 08:01:27;;;;;;;6.22;1.90;;;17.60;47.60;;;;;;5013676;28;20616;-79
2022/05/31 08:03:55;;;;;;;4.25;1.70;;;17.80;47.20;;;;;;5013343;28;20034;-82
2022/05/31 08:06:29;;;;;;;3.28;1.60;;;18.00;46.50;;;;;;5013833;28;20092;-80
2022/05/31 08:08:57;;;;;;;2.13;1.08;;;18.30;46.20;;;;;;5013314;28;20149;-80
2022/05/31 08:11:28;;;;;;;4.95;2.08;;;18.60;45.50;;;;;;4997448;28;20041;-83
2022/05/31 08:13:54;;;;;;;6.47;1.90;;;18.90;44.30;;;;;;5013955;28;20393;-81
2022/05/31 08:16:29;;;;;;;4.63;1.60;;;19.10;45.00;;;;;;4997905;28;20045;-81
2022/05/31 08:18:55;;;;;;;5.15;1.48;;;19.30;42.80;;;;;;4996306;28;20508;-80
2022/05/31 08:21:27;;;;;;;7.50;1.70;;;19.40;42.90;;;;;;5011701;28;20058;-83
2022/05/31 08:24:19;;;;;;;3.08;1.65;;;19.60;43.10;;;;;;5014844;28;20058;-84
2022/05/31 08:26:46;;;;;;;4.00;1.33;;;19.90;42.10;;;;;;4995344;28;20483;-84
2022/05/31 08:29:11;;;;;;;2.70;1.10;;;19.90;40.80;;;;;;4994687;28;20221;-83
2022/05/31 08:31:40;;;;;;;3.85;1.65;;;19.90;40.70;;;;;;5013901;28;20056;-83
2022/05/31 08:34:07;;;;;;;4.55;1.23;;;19.70;39.40;;;;;;5013565;28;20034;-81
2022/05/31 08:36:34;;;;;;;4.85;1.63;;;19.70;37.10;;;;;;4996701;28;20026;-80
2022/05/31 08:39:00;;;;;;;3.30;1.20;;;19.60;36.80;;;;;;5012643;28;20046;-79
2022/05/31 08:41:42;;;;;;;2.20;1.10;;;19.70;38.20;;;;;;4996722;28;20053;-79
2022/05/31 08:44:30;;;;;;;5.00;1.25;;;19.70;37.60;;;;;;5013201;28;20053;-80
2022/05/31 08:46:57;;;;;;;2.70;1.02;;;19.60;37.10;;;;;;5013785;28;20034;-80
2022/05/31 08:52:33;;;;;;;3.13;1.27;;;19.70;37.00;;;;;;5013657;28;20077;-79
2022/05/31 08:57:56;;;;;;;2.35;1.10;;;19.70;37.30;;;;;;5013341;28;20387;-85
2022/05/31 09:00:31;;;;;;;3.40;0.90;;;19.80;36.20;;;;;;5012325;28;20399;-85
2022/05/31 09:03:41;;;;;;;3.25;1.23;;;19.80;37.10;;;;;;4994762;28;20056;-83
2022/05/31 09:06:10;;;;;;;3.83;1.35;;;19.80;37.10;;;;;;4970770;28;20076;-88
2022/05/31 09:08:56;;;;;;;6.95;1.33;;;19.90;36.30;;;;;;5012555;28;20022;-89
2022/05/31 09:11:32;;;;;;;6.43;1.40;;;20.10;37.40;;;;;;5013474;28;20022;-75
2022/05/31 09:14:26;;;;;;;2.95;1.38;;;20.10;37.30;;;;;;5013239;28;20065;-82
2022/05/31 09:17:09;;;;;;;3.33;1.40;;;20.00;36.90;;;;;;5012817;28;20040;-87
2022/05/31 09:19:51;;;;;;;3.85;1.58;;;19.90;37.10;;;;;;5012464;28;20021;-81
2022/05/31 09:22:17;;;;;;;5.93;1.50;;;19.80;38.20;;;;;;5012721;28;20032;-77
2022/05/31 09:24:45;;;;;;;1.60;0.90;;;19.90;37.10;;;;;;5012481;28;20065;-84
2022/05/31 09:27:11;;;;;;;6.78;1.50;;;20.10;38.20;;;;;;5012530;28;20104;-80
2022/05/31 09:30:01;;;;;;;3.95;1.10;;;20.40;37.20;;;;;;5012526;28;20081;-80
2022/05/31 09:32:32;;;;;;;5.22;1.10;;;20.60;36.30;;;;;;5012459;28;20018;-80
2022/05/31 09:35:10;;;;;;;4.15;1.08;;;20.70;35.70;;;;;;5012066;28;20034;-81
2022/05/31 09:38:04;;;;;;;5.65;1.60;;;20.90;35.90;;;;;;5012086;28;20092;-81
2022/05/31 09:40:41;;;;;;;2.95;1.20;;;20.90;35.10;;;;;;4994764;28;20121;-81
2022/05/31 09:43:30;;;;;;;2.65;1.10;;;20.90;33.20;;;;;;5011795;28;20018;-80
2022/05/31 09:46:10;;;;;;;5.13;1.27;;;20.90;32.50;;;;;;5012058;28;20018;-80
2022/05/31 09:48:52;;;;;;;4.22;1.27;;;20.80;32.50;;;;;;5011706;28;20030;-78
2022/05/31 09:51:21;;;;;;;6.53;1.48;;;20.90;32.80;;;;;;5012133;28;20026;-86
2022/05/31 09:59:24;;;;;;;4.03;1.00;;;21.00;31.80;;;;;;5028095;28;20041;-78
2022/05/31 10:01:50;;;;;;;4.27;1.50;;;20.80;32.00;;;;;;5025206;28;20028;-88
2022/05/31 10:04:30;;;;;;;5.68;1.80;;;20.90;33.90;;;;;;5023061;28;20157;-80
2022/05/31 10:06:59;;;;;;;5.68;1.38;;;20.90;33.10;;;;;;5018768;28;20026;-78
2022/05/31 10:09:31;;;;;;;7.45;1.67;;;21.10;33.10;;;;;;5018935;28;20041;-79
2022/05/31 10:12:19;;;;;;;3.15;1.27;;;21.20;33.20;;;;;;5024962;28;20479;-82
2022/05/31 10:14:51;;;;;;;3.80;1.45;;;21.10;32.90;;;;;;5014166;28;20038;-77
2022/05/31 10:17:42;;;;;;;5.85;1.25;;;21.20;32.90;;;;;;4980806;28;20022;-85
2022/05/31 10:21:03;;;;;;;1.40;1.00;;;21.50;33.70;;;;;;5013017;28;20104;-86
2022/05/31 10:23:44;;;;;;;5.30;1.27;;;21.50;32.80;;;;;;5003827;28;20038;-79
2022/05/31 10:26:33;;;;;;;4.55;1.55;;;21.40;32.60;;;;;;5000048;28;20394;-79
2022/05/31 10:29:06;;;;;;;3.08;1.08;;;21.60;32.90;;;;;;5019878;28;20128;-78
2022/05/31 10:31:46;;;;;;;2.75;1.00;;;21.80;32.60;;;;;;5000666;28;20026;-87
2022/05/31 10:34:44;;;;;;;3.13;1.08;;;21.90;31.50;;;;;;5011736;28;20483;-79
2022/05/31 10:37:32;;;;;;;4.95;1.10;;;21.90;30.70;;;;;;4976472;28;20070;-80
2022/05/31 10:40:07;;;;;;;4.32;1.05;;;21.90;30.60;;;;;;5014191;28;20030;-78
2022/05/31 10:42:37;;;;;;;2.30;1.10;;;22.00;30.20;;;;;;5013741;28;20068;-79
2022/05/31 10:45:07;;;;;;;2.75;0.85;;;22.00;30.70;;;;;;4999028;28;20038;-84
2022/05/31 10:47:34;;;;;;;6.70;1.30;;;22.10;30.50;;;;;;5021881;28;20026;-86
2022/05/31 10:50:02;;;;;;;3.60;1.10;;;22.30;29.50;;;;;;5020386;28;20030;-87
2022/05/31 10:52:52;;;;;;;4.25;1.10;;;22.50;29.80;;;;;;5004055;28;20037;-80
2022/05/31 10:55:39;;;;;;;4.65;1.30;;;22.70;28.10;;;;;;5022817;28;20037;-78
2022/05/31 10:58:28;;;;;;;2.05;1.00;;;23.00;28.20;;;;;;5017860;28;20022;-78
2022/05/31 11:00:59;;;;;;;1.60;0.90;;;23.10;28.10;;;;;;5018564;28;20033;-78
2022/05/31 11:03:40;;;;;;;10.00;1.75;;;22.80;28.60;;;;;;5015567;28;20053;-79
2022/05/31 11:06:35;;;;;;;3.45;1.02;;;22.90;27.40;;;;;;5019827;28;20109;-87
2022/05/31 11:13:21;;;;;;;2.60;0.90;;;23.50;27.00;;;;;;4960352;29;20468;-89
2022/05/31 11:16:04;;;;;;;2.47;1.00;;;23.70;26.80;;;;;;4950205;29;20055;-77
2022/05/31 11:19:07;;;;;;;3.88;0.95;;;23.50;26.20;;;;;;5023228;28;20030;-90
2022/05/31 11:22:03;;;;;;;5.63;0.90;;;22.90;27.60;;;;;;5027951;28;20018;-86
2022/05/31 11:24:49;;;;;;;2.75;0.85;;;22.80;26.00;;;;;;5020040;28;20133;-78
2022/05/31 11:27:29;;;;;;;3.35;1.13;;;23.00;25.30;;;;;;5019073;28;20026;-78
2022/05/31 11:30:23;;;;;;;5.55;1.13;;;23.40;26.10;;;;;;5017284;28;20447;-78
2022/05/31 11:33:43;;;;;;;2.13;0.80;;;23.40;25.80;;;;;;5015512;28;20046;-78
2022/05/31 11:36:42;;;;;;;2.78;0.90;;;23.50;25.70;;;;;;5004016;28;20037;-77
2022/05/31 11:39:12;;;;;;;;;;;23.10;26.50;;;;;;5014832;28;20087;-77
2022/05/31 11:42:15;;;;;;;4.30;1.00;;;23.10;26.00;;;;;;5014507;28;20354;-77
2022/05/31 11:45:03;;;;;;;2.13;0.82;;;23.00;24.90;;;;;;5015645;28;20105;-78
2022/05/31 11:47:44;;;;;;;3.20;0.80;;;22.60;25.20;;;;;;5014441;28;20475;-78
2022/05/31 11:50:44;;;;;;;4.05;0.75;;;22.20;25.50;;;;;;5014671;28;20033;-77
2022/05/31 11:53:56;;;;;;;3.33;0.60;;;22.10;25.90;;;;;;5014170;28;20034;-81
2022/05/31 11:56:44;;;;;;;2.92;1.20;;;22.10;25.30;;;;;;4954184;28;20042;-79
2022/05/31 11:59:30;;;;;;;3.88;1.10;;;22.00;25.80;;;;;;5016282;28;20029;-81
2022/05/31 12:02:20;;;;;;;1.77;1.00;;;22.00;25.90;;;;;;5016200;28;20022;-77
2022/05/31 12:05:00;;;;;;;6.85;1.08;;;22.00;24.90;;;;;;5014352;28;20030;-78
2022/05/31 12:07:46;;;;;;;6.82;0.90;;;21.90;25.20;;;;;;5015569;28;20026;-79
2022/05/31 12:10:21;;;;;;;6.63;0.95;;;21.90;24.70;;;;;;5014557;28;20029;-87
2022/05/31 12:12:47;;;;;;;1.40;0.65;;;22.00;24.20;;;;;;5013929;28;20558;-80
2022/05/31 12:15:25;;;;;;;5.53;0.77;;;22.00;24.10;;;;;;4997633;28;20034;-78
2022/05/31 12:18:13;;;;;;;4.18;1.10;;;22.20;24.20;;;;;;5014052;28;20022;-80
2022/05/31 12:21:16;;;;;;;4.38;1.15;;;22.10;24.70;;;;;;5013758;28;20021;-78
2022/05/31 12:24:21;;;;;;;2.45;1.00;;;22.10;24.20;;;;;;4997282;28;20125;-79
2022/05/31 12:26:57;;;;;;;2.92;1.02;;;22.20;25.20;;;;;;5013991;28;20029;-80
2022/05/31 12:29:39;;;;;;;1.60;0.73;;;22.00;24.30;;;;;;5013384;28;20029;-80
2022/05/31 12:33:00;;;;;;;4.72;0.90;;;21.80;25.00;;;;;;5013455;28;20049;-79
2022/05/31 12:35:32;;;;;;;8.93;1.40;;;21.60;25.80;;;;;;4973638;28;20046;-79
2022/05/31 12:38:10;;;;;;;3.30;1.00;;;21.50;26.00;;;;;;5013835;28;20046;-79
2022/05/31 12:40:49;;;;;;;5.00;0.98;;;21.20;26.30;;;;;;5013666;28;20022;-79
2022/05/31 12:43:34;;;;;;;3.25;1.33;;;21.10;26.60;;;;;;5013011;28;20018;-81
2022/05/31 12:46:26;;;;;;;1.92;1.10;;;21.00;27.30;;;;;;5013528;28;20050;-80
2022/05/31 12:49:06;;;;;;;5.90;1.02;;;20.90;28.10;;;;;;5013224;28;20044;-79
2022/05/31 12:51:32;;;;;;;2.63;0.90;;;20.90;29.20;;;;;;5013530;28;20026;-79
2022/05/31 12:54:02;;;;;;;5.32;1.35;;;21.00;28.30;;;;;;5012807;28;20061;-82
2022/05/31 12:56:31;;;;;;;4.45;1.50;;;21.00;28.60;;;;;;5013637;28;20108;-78
2022/05/31 12:58:59;;;;;;;4.93;1.48;;;20.90;28.40;;;;;;5014168;28;20034;-80
2022/05/31 13:01:25;;;;;;;6.40;1.13;;;20.90;28.90;;;;;;5013924;28;20021;-84
2022/05/31 13:04:05;;;;;;;1.95;0.82;;;21.00;29.60;;;;;;5014004;28;20037;-78
2022/05/31 13:06:55;;;;;;;2.85;1.00;;;21.10;29.70;;;;;;5017080;28;20402;-81
2022/05/31 13:09:24;;;;;;;2.05;1.00;;;21.30;29.60;;;;;;5013690;28;20053;-80
2022/05/31 13:20:39;;;;;;;4.90;1.33;;;21.20;30.00;;;;;;5016344;28;20414;-87
2022/05/31 13:23:16;;;;;;;5.25;1.40;;;21.10;30.60;;;;;;5014909;28;20100;-88
2022/05/31 13:26:08;;;;;;;4.28;1.40;;;21.00;31.30;;;;;;5020866;28;20022;-84
2022/05/31 13:28:44;;;;;;;3.65;1.40;;;21.20;30.80;;;;;;5025000;28;20034;-83
2022/05/31 13:31:21;;;;;;;7.28;1.13;;;21.30;30.70;;;;;;5018141;28;20038;-85
2022/05/31 13:33:58;;;;;;;5.57;1.45;;;21.50;32.00;;;;;;5013553;28;20117;-87
2022/05/31 13:36:47;;;;;;;2.92;1.10;;;21.60;31.10;;;;;;5014622;28;20414;-84
2022/05/31 13:39:16;;;;;;;11.18;1.58;;;21.70;31.10;;;;;;5012675;28;20069;-88
2022/05/31 13:41:51;;;;;;;5.90;1.10;;;21.70;32.30;;;;;;5016432;28;20033;-87
2022/05/31 13:44:39;;;;;;;1.92;1.10;;;21.90;31.50;;;;;;5014516;28;20029;-88
2022/05/31 13:47:08;;;;;;;5.68;1.20;;;21.90;32.10;;;;;;4995376;28;20030;-89
2022/05/31 13:49:44;;;;;;;4.05;1.48;;;21.70;31.50;;;;;;5016158;28;20049;-86
2022/05/31 13:52:21;;;;;;;;;;;21.40;31.80;;;;;;5000479;28;20066;-87
2022/05/31 13:54:49;;;;;;;2.60;1.20;;;21.40;33.00;;;;;;5023215;28;20330;-87